Air Quality Table

TIMESTAMP NO2 SO2 O3 PM10 PM2.5 TEMP HUM AIRPRES WS WD NO
2022-06-26 01:00 25.25 µg/m3 0.19 µg/m3 60.36 µg/m3 37.62 µg/m3 8.89 µg/m3 29.55 °C 38.61 % 1,006.91 mbar 1.94 m/s 214.53 Deg 5.21 µg/m3
2022-06-25 01:00 30.82 µg/m3 0.24 µg/m3 64.19 µg/m3 43.58 µg/m3 10.9 µg/m3 30.41 °C 38.08 % 1,006.41 mbar 1.94 m/s 235.85 Deg 6.06 µg/m3
2022-06-24 01:00 23.26 µg/m3 0.1 µg/m3 74.32 µg/m3 35.91 µg/m3 11.73 µg/m3 29.25 °C 41.72 % 1,007.30 mbar 1.96 m/s 281.09 Deg 3.25 µg/m3
2022-06-23 01:00 19.03 µg/m3 0 µg/m3 76.64 µg/m3 25.64 µg/m3 8.47 µg/m3 27.67 °C 52.02 % 1,007.07 mbar 1.78 m/s 291.31 Deg 3.02 µg/m3
2022-06-22 01:00 16.48 µg/m3 -0.04 µg/m3 88.72 µg/m3 29.48 µg/m3 10.78 µg/m3 26.09 °C 68 % 1,008.69 mbar 2.03 m/s 264.82 Deg 2.33 µg/m3
2022-06-21 01:00 11.04 µg/m3 -0.06 µg/m3 94.42 µg/m3 22.1 µg/m3 9.22 µg/m3 24.84 °C 74.75 % 1,008.93 mbar 1.93 m/s 172.07 Deg 1.31 µg/m3
2022-06-20 01:00 3.46 µg/m3 -0.09 µg/m3 101.66 µg/m3 22.42 µg/m3 10.75 µg/m3 23.78 °C 90.15 % 1,008.16 mbar 2.64 m/s 150.14 Deg 0.64 µg/m3
2022-06-19 01:00 5.39 µg/m3 -0.07 µg/m3 95.28 µg/m3 23.13 µg/m3 13.09 µg/m3 24.43 °C 84.92 % 1,007.75 mbar 2.85 m/s 197.98 Deg 0.98 µg/m3
2022-06-18 01:00 19.6 µg/m3 0.02 µg/m3 80.58 µg/m3 28.63 µg/m3 11.36 µg/m3 26.09 °C 60.75 % 1,009.82 mbar 2.12 m/s 255.7 Deg 2.82 µg/m3
2022-06-17 01:00 19.28 µg/m3 0.92 µg/m3 78.23 µg/m3 25.25 µg/m3 10.06 µg/m3 25.18 °C 68.07 % 1,010.44 mbar 1.84 m/s 232.61 Deg 1.97 µg/m3
2022-06-16 01:00 25.06 µg/m3 0.04 µg/m3 93.5 µg/m3 25.42 µg/m3 8.72 µg/m3 25.82 °C 57.25 % 1,010.55 mbar 1.88 m/s 190.83 Deg 6.15 µg/m3
2022-06-15 01:00 9.47 µg/m3 -0.07 µg/m3 99.65 µg/m3 21.84 µg/m3 7.85 µg/m3 24.33 °C 76.58 % 1,008.24 mbar 1.75 m/s 205.99 Deg 0.98 µg/m3
2022-06-14 01:00 13.58 µg/m3 -0.09 µg/m3 101.89 µg/m3 26.87 µg/m3 9.49 µg/m3 24.47 °C 69.15 % 1,007.48 mbar 2.16 m/s 134.91 Deg 1.82 µg/m3
2022-06-13 01:00 11.37 µg/m3 -0.09 µg/m3 93.93 µg/m3 27.04 µg/m3 9.04 µg/m3 24.77 °C 67.32 % 1,008.28 mbar 2.61 m/s 234.98 Deg 1.62 µg/m3
2022-06-12 01:00 10.48 µg/m3 -0.1 µg/m3 92.83 µg/m3 30 µg/m3 10.02 µg/m3 24.11 °C 72.36 % 1,006.64 mbar 3.71 m/s 299.59 Deg 1.94 µg/m3
2022-06-11 01:00 9.65 µg/m3 -0.11 µg/m3 81.08 µg/m3 45.93 µg/m3 11.36 µg/m3 22.76 °C 76.64 % 1,002.18 mbar 4.84 m/s 322.51 Deg 2.52 µg/m3
2022-06-10 01:00 14.94 µg/m3 -0.07 µg/m3 74.33 µg/m3 33.06 µg/m3 9.6 µg/m3 24.57 °C 69.1 % 1,002.48 mbar 3.69 m/s 318.18 Deg 6.46 µg/m3
2022-06-09 01:00 14.21 µg/m3 -0.07 µg/m3 82.32 µg/m3 27.34 µg/m3 9.47 µg/m3 26.28 °C 62.07 % 1,003.92 mbar 2.93 m/s 253.88 Deg 2.98 µg/m3
2022-06-08 01:00 10.63 µg/m3 -0.08 µg/m3 91.35 µg/m3 33.72 µg/m3 10.72 µg/m3 26.98 °C 54.8 % 1,004.77 mbar 3.19 m/s 222.91 Deg 1.74 µg/m3
2022-06-07 01:00 15.47 µg/m3 -0.05 µg/m3 79.26 µg/m3 54.77 µg/m3 14.22 µg/m3 27.96 °C 55.89 % 1,007.25 mbar 3.15 m/s 313.7 Deg 2.99 µg/m3
2022-06-06 01:00 19.82 µg/m3 0.07 µg/m3 81.83 µg/m3 33.75 µg/m3 11.36 µg/m3 29.33 °C 41.51 % 1,009.53 mbar 2.42 m/s 271.1 Deg 1.98 µg/m3
2022-06-05 01:00 32.73 µg/m3 0.13 µg/m3 69.83 µg/m3 39.27 µg/m3 11.73 µg/m3 28.87 °C 34.83 % 1,010.11 mbar 2.02 m/s 270.62 Deg 5.09 µg/m3
2022-06-04 01:00 35.12 µg/m3 0.02 µg/m3 74.24 µg/m3 41.39 µg/m3 12.11 µg/m3 26.92 °C 46.26 % 1,009.88 mbar 2.11 m/s 202.17 Deg 5.1 µg/m3
2022-06-03 01:00 19.06 µg/m3 -0.06 µg/m3 77.63 µg/m3 44.11 µg/m3 12.79 µg/m3 25.42 °C 64.08 % 1,008.51 mbar 2.18 m/s 148.78 Deg 2.89 µg/m3
2022-06-02 01:00 14.58 µg/m3 -0.03 µg/m3 70.81 µg/m3 42.43 µg/m3 11.52 µg/m3 26.56 °C 57.15 % 1,007.55 mbar 1.88 m/s 173.18 Deg 3.55 µg/m3
2022-06-01 01:00 19.67 µg/m3 -0.02 µg/m3 55.82 µg/m3 32.16 µg/m3 9.36 µg/m3 25.03 °C 62.58 % 1,007.92 mbar 3.15 m/s 193.12 Deg 5.67 µg/m3
2022-05-31 01:00 23 µg/m3 -0.04 µg/m3 72.55 µg/m3 21.13 µg/m3 8.3 µg/m3 24.14 °C 60.97 % 1,005.44 mbar 3.8 m/s 212.67 Deg 3.15 µg/m3
2022-05-30 01:00 8.17 µg/m3 -0.11 µg/m3 87.8 µg/m3 24.14 µg/m3 9.78 µg/m3 22.15 °C 75.07 % 1,001.34 mbar 3.29 m/s 297.48 Deg 1.63 µg/m3
2022-05-29 01:00 8.04 µg/m3 -0.11 µg/m3 86.89 µg/m3 21.99 µg/m3 7.62 µg/m3 21.7 °C 80.46 % 1,001.34 mbar 3.28 m/s 286.02 Deg 1.79 µg/m3
2022-05-28 01:00 5.78 µg/m3 -0.1 µg/m3 83.19 µg/m3 34.99 µg/m3 10.47 µg/m3 22.18 °C 84.8 % 1,004.72 mbar 4.48 m/s 192.75 Deg 1 µg/m3

It is to be noted that the data is provisional and subject to quality assurance procedures. For validated data kindly refer your request to contact.air@era.org.mt